Savoonga, AK

3:56 PM AKDT on September 22, 2014 (GMT -0800)
Savoonga | Change Station
CLOSE
Current Station
Airport
Location: Savoonga,
Elevation: 52 ft
Nearby Weather Stations

Elev 52 ft 63.69 °N, 170.49 °W | Updated 20 minutes ago

Overcast
Overcast
41 °F
Feels Like 39 °F
N
4
Wind Variable Wind from North

Today
High -- | Low -- °F
--% Chance of Precip.
Yesterday
High -- | Low -- °F
Precip. -- in
9:05 AM 9:21 PM
Waning Crescent, 2% visible
Pressure 29.75 in
Visibility 10.0 miles
Clouds Scattered Clouds 900 ft
Mostly Cloudy 1500 ft
Overcast 2000 ft
Windchill 39 °F
Dew Point 37 °F
Humidity 87%
Rainfall 0.01 in
Snow Depth 6 in , 0 in , 0 in
UV 1 out of 12
Pollen Not available.
Air Quality Not available.
Flu Activity Not available.
METAR PASA 222336Z AUTO 36003KT 10SM SCT009 BKN015 OVC020 05/03 A2975 RMK AO1

More Conditions Fewer Conditions

Pressure 29.75 in
Visibility 10.0 miles
Clouds Scattered Clouds 900 ft
Mostly Cloudy 1500 ft
Overcast 2000 ft
Windchill 39 °F
Dew Point 37 °F
Humidity 87%
Rainfall 0.01 in
Snow Depth 6 in , 0 in , 0 in
UV 1 out of 12
Pollen Not available.
Air Quality Not available.
Flu Activity Not available.
METAR PASA 222336Z AUTO 36003KT 10SM SCT009 BKN015 OVC020 05/03 A2975 RMK AO1

More Conditions Fewer Conditions

10-Day Weather Forecast

Almanac

Astronomy

Sep. 22, 2014 Rise Set
Actual Time 9:05 AM AKDT 9:21 PM AKDT
Civil Twilight 8:18 AM AKDT 10:08 PM AKDT
Nautical Twilight 7:21 AM AKDT 11:05 PM AKDT
Astronomical Twilight 6:15 AM AKDT 12:10 AM AKDT
Moon 7:30 AM AKDT 8:43 PM AKDT
Length of Visible Light 13h 49m
Length of Day
12h 15m
Tomorrow will be 6m 18s shorter.
Waning Crescent, 2% of the Moon is Illuminated
Today
Waning Crescent
Sep 24
New
Oct 1
First Quarter
Oct 8
Full
Oct 15
Last Quarter

Today's Extremes

State Highs State Lows

Community

WunderPhotos

Upload Photos

1,755,558 photos uploaded!

Nearby

Snow Depth

Station Depth Elevation
Rocky Point 6 in 500 ft
Fort Yukon 0 in 430 ft
Granite Creek 0 in 1240 ft
Grandview 10 in 1100 ft
Atigun Pass 4 in 4800 ft

Earthquake Activity

City Distance Mag. Time & Date
No recent earthquake activity has been reported nearby.
Minimum magnitude displayed is 2.5.

Coastal Water Temperatures

Place Temperature
No Stations Reporting

Nearby Weather Stations